Terminal Aerodrome Forecast
Issued by NWS

Home | Current Version | Previous Version | Text Only | Print | Product List | Glossary On
Versions: 1 2 3 4 5 6 7 8 9 10 11 12 13 14
524
FTUS45 KVEF 241720
TAFDAG
TAF
KDAG 241720Z 2418/2518 24018G26KT P6SM FEW080
     FM251600 29011KT P6SM FEW070=

USA.gov is the U.S. government's official web portal to all federal, state and local government web resources and services.